TimeCDT,TemperatureF,Dew PointF,Humidity,Sea Level PressureIn,VisibilityMPH,Wind Direction,Wind SpeedMPH,Gust SpeedMPH,PrecipitationIn,Events,Conditions,WindDirDegrees,DateUTC
12:15 AM,45.5,35.8,69,30.01,10.0,South,8.1,-,N/A,,Clear,170,2012-10-09 05:15:00
12:35 AM,45.0,36.0,71,30.01,10.0,South,6.9,-,N/A,,Clear,180,2012-10-09 05:35:00
12:55 AM,45.5,36.0,69,30.00,10.0,South,8.1,-,N/A,,Clear,170,2012-10-09 05:55:00
1:15 AM,45.5,36.0,69,30.00,10.0,South,6.9,-,N/A,,Clear,180,2012-10-09 06:15:00
1:35 AM,45.7,36.1,69,30.00,10.0,South,6.9,-,N/A,,Clear,180,2012-10-09 06:35:00
1:55 AM,45.7,36.3,70,30.00,10.0,South,8.1,-,N/A,,Clear,180,2012-10-09 06:55:00
2:15 AM,45.3,36.5,71,30.00,10.0,South,5.8,-,N/A,,Clear,180,2012-10-09 07:15:00
2:35 AM,45.3,36.7,72,30.00,10.0,South,5.8,-,N/A,,Clear,180,2012-10-09 07:35:00
2:55 AM,43.0,36.5,78,29.99,10.0,SSE,8.1,-,N/A,,Clear,160,2012-10-09 07:55:00
3:15 AM,41.7,36.7,82,29.98,10.0,South,4.6,-,N/A,,Clear,170,2012-10-09 08:15:00
3:35 AM,42.8,36.5,78,29.98,10.0,South,3.5,-,N/A,,Clear,170,2012-10-09 08:35:00
3:55 AM,43.3,36.9,78,29.98,10.0,South,4.6,-,N/A,,Clear,180,2012-10-09 08:55:00
4:15 AM,44.1,37.2,77,29.98,10.0,South,3.5,-,N/A,,Clear,180,2012-10-09 09:15:00
4:35 AM,43.7,37.0,77,29.98,10.0,South,4.6,-,N/A,,Clear,180,2012-10-09 09:35:00
4:55 AM,43.3,37.2,79,29.98,10.0,South,4.6,-,N/A,,Clear,180,2012-10-09 09:55:00
5:15 AM,42.6,36.9,80,29.98,10.0,South,4.6,-,N/A,,Clear,170,2012-10-09 10:15:00
5:35 AM,41.4,36.5,83,29.98,10.0,SSE,5.8,-,N/A,,Clear,160,2012-10-09 10:35:00
5:55 AM,41.4,37.2,85,29.99,10.0,South,6.9,-,N/A,,Clear,170,2012-10-09 10:55:00
6:15 AM,42.3,37.4,83,29.99,10.0,South,6.9,-,N/A,,Clear,180,2012-10-09 11:15:00
6:35 AM,42.6,37.6,82,29.99,10.0,South,5.8,-,N/A,,Clear,180,2012-10-09 11:35:00
6:55 AM,42.3,37.4,83,29.98,10.0,SSE,5.8,-,N/A,,Clear,160,2012-10-09 11:55:00
7:15 AM,41.9,37.8,85,29.99,10.0,South,3.5,-,N/A,,Clear,180,2012-10-09 12:15:00
7:55 AM,43.5,38.5,82,29.98,10.0,South,8.1,-,N/A,,Clear,170,2012-10-09 12:55:00
8:15 AM,45.5,39.4,79,29.99,10.0,South,6.9,-,N/A,,Clear,180,2012-10-09 13:15:00
8:35 AM,47.7,39.9,75,29.99,10.0,South,8.1,-,N/A,,Clear,170,2012-10-09 13:35:00
8:55 AM,49.3,40.3,71,29.98,10.0,South,10.4,-,N/A,,Clear,180,2012-10-09 13:55:00
9:15 AM,51.1,40.8,68,29.98,10.0,South,6.9,-,N/A,,Clear,190,2012-10-09 14:15:00
9:35 AM,53.4,41.9,65,29.98,10.0,South,8.1,-,N/A,,Clear,180,2012-10-09 14:35:00
9:55 AM,55.8,42.3,60,29.98,10.0,South,10.4,-,N/A,,Clear,170,2012-10-09 14:55:00
10:15 AM,57.2,42.3,57,29.98,10.0,SSW,10.4,16.1,N/A,,Clear,200,2012-10-09 15:15:00
10:35 AM,58.5,42.6,56,29.98,10.0,South,8.1,-,N/A,,Clear,180,2012-10-09 15:35:00
10:55 AM,59.5,43.0,54,29.98,10.0,South,9.2,-,N/A,,Clear,190,2012-10-09 15:55:00
11:15 AM,61.5,43.0,51,29.98,10.0,SSW,8.1,-,N/A,,Clear,200,2012-10-09 16:15:00
11:35 AM,62.2,43.2,50,29.98,10.0,SW,10.4,17.3,N/A,,Clear,230,2012-10-09 16:35:00
11:55 AM,62.8,43.0,48,29.96,10.0,SSW,8.1,16.1,N/A,,Clear,200,2012-10-09 16:55:00
12:15 PM,64.0,43.9,48,29.96,10.0,SW,10.4,-,N/A,,Clear,220,2012-10-09 17:15:00
12:35 PM,64.8,43.2,45,29.95,10.0,WSW,6.9,-,N/A,,Clear,240,2012-10-09 17:35:00
12:55 PM,65.1,43.5,45,29.94,10.0,SSW,9.2,-,N/A,,Clear,210,2012-10-09 17:55:00
1:15 PM,65.8,43.3,44,29.92,10.0,South,10.4,16.1,N/A,,Scattered Clouds,190,2012-10-09 18:15:00
1:35 PM,66.7,43.0,42,29.91,10.0,South,8.1,-,N/A,,Scattered Clouds,190,2012-10-09 18:35:00
1:55 PM,67.3,43.3,42,29.90,10.0,WSW,6.9,-,N/A,,Clear,240,2012-10-09 18:55:00
2:15 PM,68.0,43.0,40,29.89,10.0,SSW,10.4,16.1,N/A,,Clear,200,2012-10-09 19:15:00
2:35 PM,68.4,43.0,40,29.89,10.0,South,9.2,-,N/A,,Clear,190,2012-10-09 19:35:00
2:55 PM,68.7,43.0,39,29.88,10.0,SSW,6.9,-,N/A,,Clear,200,2012-10-09 19:55:00
3:15 PM,69.1,42.4,38,29.88,10.0,SSW,11.5,17.3,N/A,,Clear,200,2012-10-09 20:15:00
3:35 PM,68.9,42.6,39,29.89,10.0,SW,8.1,-,N/A,,Scattered Clouds,220,2012-10-09 20:35:00
3:55 PM,67.8,43.5,41,29.89,10.0,WSW,6.9,17.3,N/A,,Overcast,250,2012-10-09 20:55:00
4:15 PM,67.1,44.8,45,29.89,10.0,WSW,8.1,-,N/A,,Overcast,250,2012-10-09 21:15:00
4:35 PM,66.4,45.0,46,29.89,10.0,WSW,4.6,-,N/A,,Overcast,250,2012-10-09 21:35:00
4:55 PM,65.8,45.3,47,29.89,10.0,West,3.5,-,N/A,,Overcast,280,2012-10-09 21:55:00
5:15 PM,65.1,45.9,50,29.89,10.0,West,5.8,-,N/A,,Overcast,270,2012-10-09 22:15:00
5:35 PM,64.8,46.2,51,29.90,10.0,West,4.6,-,N/A,,Overcast,270,2012-10-09 22:35:00
5:55 PM,64.4,46.4,52,29.90,10.0,Calm,Calm,-,N/A,,Overcast,0,2012-10-09 22:55:00
6:15 PM,63.7,46.6,54,29.90,10.0,WNW,3.5,-,N/A,,Overcast,300,2012-10-09 23:15:00
6:35 PM,63.1,47.7,57,29.91,10.0,WNW,9.2,-,N/A,,Overcast,300,2012-10-09 23:35:00
6:55 PM,61.7,49.5,64,29.93,10.0,WNW,6.9,-,N/A,,Overcast,300,2012-10-09 23:55:00
7:15 PM,59.2,51.8,77,29.95,5.0,WNW,6.9,-,0.01,Rain,Heavy Rain,300,2012-10-10 00:15:00
7:35 PM,56.7,54.3,92,29.96,10.0,NW,6.9,-,0.01,,Overcast,310,2012-10-10 00:35:00
7:55 PM,56.3,54.0,92,29.96,10.0,WNW,4.6,-,0.01,,Overcast,300,2012-10-10 00:55:00
8:15 PM,56.1,52.7,88,29.98,10.0,Calm,Calm,-,N/A,,Overcast,0,2012-10-10 01:15:00
8:35 PM,55.6,51.6,87,29.99,10.0,NNW,11.5,18.4,N/A,,Overcast,340,2012-10-10 01:35:00
8:55 PM,54.5,47.1,76,30.01,10.0,North,10.4,-,N/A,,Overcast,350,2012-10-10 01:55:00
9:15 PM,53.6,45.3,74,30.03,10.0,North,10.4,17.3,N/A,Rain,Light Rain,350,2012-10-10 02:15:00
9:35 PM,52.2,43.5,72,30.04,10.0,North,13.8,25.3,N/A,,Light Drizzle,360,2012-10-10 02:35:00
9:55 PM,51.6,37.8,59,30.05,10.0,North,10.4,20.7,N/A,,Overcast,350,2012-10-10 02:55:00
10:15 PM,51.4,37.8,60,30.06,10.0,North,6.9,-,N/A,,Overcast,360,2012-10-10 03:15:00
10:35 PM,51.1,39.2,64,30.07,10.0,North,6.9,-,N/A,,Overcast,350,2012-10-10 03:35:00
10:55 PM,50.9,38.5,62,30.08,10.0,NNW,5.8,-,N/A,,Overcast,330,2012-10-10 03:55:00
11:15 PM,50.0,37.9,63,30.09,10.0,NNW,4.6,-,N/A,,Mostly Cloudy,340,2012-10-10 04:15:00
11:35 PM,48.9,37.8,65,30.09,10.0,NW,3.5,-,N/A,,Scattered Clouds,320,2012-10-10 04:35:00
11:55 PM,48.2,37.9,68,30.10,10.0,Calm,Calm,-,N/A,,Clear,0,2012-10-10 04:55:00